CYPW

Powell River Airport

Powell River, , Canada
METAR CYPW 231600Z 10010G15KT 5SM -SN BKN020 OVC030 M01/M03 A3030 RMK SC5SC3 SLP267
Observed Flight Rules
Feb-23 @ 16:00 UTC (38 minutes ago) Marginal Visual Flight Rules
Wind Visibility Clouds Conditions
100° at 10 knots
 Gusting to 15 knots
5 miles
  • Broken at 2,000' AGL
  • Overcast at 3,000' AGL
  • Light Snow
Temperatures Readings
Current -1°C / 30°F
Dewpoint -3°C / 27°F
Humidity 86%
Altimeter 30.3" Hg
Pressure 1026.7 hPa
Elevation 130
METAR CYPW 231600Z 10010G15KT 5SM -SN BKN020 OVC030 M01/M03 A3030 RMK SC5SC3 SLP267
Observed Flight Rules
Feb-23 @ 16:00 UTC
(38 minutes ago)
MVFR
Wind Visibility
100° at 10 knots
 Gusting to 15 knots
5 miles
Clouds
  • Broken at 2,000' AGL
  • Overcast at 3,000' AGL
Conditions
  • Light Snow
Temperature Dewpoint
-1°C / 30°F -3°C / 27°F
Humidity Altimeter Pressure
86% 30.3" Hg 1026.7 hPa